createdAt,value
2022-10-28T00:01:16.787Z,26.95
2022-10-28T00:03:46.244Z,25.63
2022-10-28T00:06:16.712Z,24.63
2022-10-28T00:08:44.044Z,14.32
2022-10-28T00:11:28.683Z,15.18
2022-10-28T00:13:57.569Z,21.10
2022-10-28T00:18:54.278Z,31.23
2022-10-28T00:23:49.358Z,20.63
2022-10-28T00:26:18.579Z,21.23
2022-10-28T00:28:47.744Z,30.90
2022-10-28T00:31:17.337Z,25.65
2022-10-28T00:33:44.155Z,22.33
2022-10-28T00:36:23.484Z,21.92
2022-10-28T00:38:51.857Z,18.02
2022-10-28T00:41:23.992Z,13.15
2022-10-28T00:43:55.895Z,11.93
2022-10-28T00:46:33.803Z,9.02
2022-10-28T00:49:05.788Z,9.63
2022-10-28T00:51:34.780Z,14.77
2022-10-28T00:54:02.875Z,21.10
2022-10-28T00:56:34.029Z,11.57
2022-10-28T00:59:04.328Z,16.05
2022-10-28T01:01:31.110Z,14.82
2022-10-28T01:04:00.611Z,16.70
2022-10-28T01:06:29.014Z,25.23
2022-10-28T01:08:59.091Z,26.55
2022-10-28T01:11:40.527Z,24.50
2022-10-28T01:14:22.226Z,27.23
2022-10-28T01:17:02.893Z,17.95
2022-10-28T01:19:53.540Z,22.67
2022-10-28T01:22:27.970Z,24.77
2022-10-28T01:25:13.408Z,25.40
2022-10-28T01:27:46.035Z,10.57
2022-10-28T01:30:19.606Z,11.48
2022-10-28T01:32:57.909Z,12.90
2022-10-28T01:35:39.068Z,11.43
2022-10-28T01:38:17.982Z,11.75
2022-10-28T01:41:14.571Z,15.70
2022-10-28T01:43:44.576Z,17.60
2022-10-28T01:46:17.727Z,16.15
2022-10-28T01:48:48.816Z,17.40
2022-10-28T01:51:30.931Z,17.70
2022-10-28T01:54:01.175Z,17.02
2022-10-28T01:56:32.799Z,14.27
2022-10-28T01:59:01.272Z,16.63
2022-10-28T02:01:30.149Z,16.17
2022-10-28T02:03:57.141Z,17.23
2022-10-28T02:06:27.322Z,16.15
2022-10-28T02:09:03.941Z,12.32
2022-10-28T02:11:34.906Z,14.10
2022-10-28T02:14:30.862Z,11.02
2022-10-28T02:17:31.739Z,13.18
2022-10-28T02:20:08.363Z,20.90
2022-10-28T02:22:52.510Z,14.43
2022-10-28T02:25:29.297Z,12.43
2022-10-28T02:30:41.941Z,20.30
2022-10-28T02:33:12.857Z,18.63
2022-10-28T02:35:45.321Z,25.10
2022-10-28T02:38:17.276Z,17.38
2022-10-28T02:40:50.062Z,19.83
2022-10-28T02:43:19.581Z,20.73
2022-10-28T02:45:50.499Z,28.55
2022-10-28T02:48:26.327Z,27.75
2022-10-28T02:51:03.545Z,27.67
2022-10-28T02:53:33.160Z,30.10
2022-10-28T02:56:02.530Z,29.88
2022-10-28T02:58:29.359Z,36.45
2022-10-28T03:00:56.112Z,36.10
2022-10-28T03:03:22.877Z,29.10
2022-10-28T03:05:49.557Z,33.85
2022-10-28T03:08:16.297Z,32.58
2022-10-28T03:10:43.380Z,27.20
2022-10-28T03:13:09.938Z,30.67
2022-10-28T03:15:36.525Z,34.25
2022-10-28T03:18:03.297Z,28.23
2022-10-28T03:20:29.833Z,26.85
2022-10-28T03:22:56.735Z,24.73
2022-10-28T03:25:23.519Z,21.23
2022-10-28T03:27:50.105Z,24.27
2022-10-28T03:30:18.492Z,26.10
2022-10-28T03:32:45.432Z,26.38
2022-10-28T03:35:12.169Z,18.60
2022-10-28T03:37:42.463Z,23.60
2022-10-28T03:40:10.432Z,32.75
2022-10-28T03:42:38.937Z,23.88
2022-10-28T03:45:08.652Z,21.88
2022-10-28T03:47:35.517Z,19.10
2022-10-28T03:50:02.045Z,25.52
2022-10-28T03:52:28.695Z,20.00
2022-10-28T03:54:55.280Z,14.27
2022-10-28T03:57:21.828Z,25.17
2022-10-28T03:59:48.398Z,27.20
2022-10-28T04:02:15.856Z,15.38
2022-10-28T04:04:42.617Z,16.52
2022-10-28T04:07:09.287Z,20.50
2022-10-28T04:09:35.836Z,19.50
2022-10-28T04:12:02.519Z,13.25
2022-10-28T04:14:29.199Z,15.55
2022-10-28T04:16:55.803Z,12.07
2022-10-28T04:19:22.350Z,20.67
2022-10-28T04:21:48.920Z,14.05
2022-10-28T04:24:17.050Z,13.27
2022-10-28T04:26:43.641Z,16.45
2022-10-28T04:29:10.205Z,12.95
2022-10-28T04:31:36.843Z,16.92
2022-10-28T04:34:03.363Z,14.18
2022-10-28T04:36:29.890Z,11.93
2022-10-28T04:38:56.432Z,14.80
2022-10-28T04:41:23.030Z,24.67
2022-10-28T04:43:49.635Z,23.20
2022-10-28T04:46:16.155Z,19.70
2022-10-28T04:48:42.671Z,23.58
2022-10-28T04:51:09.339Z,21.45
2022-10-28T04:53:35.936Z,26.40
2022-10-28T04:56:02.512Z,23.48
2022-10-28T04:58:29.039Z,13.32
2022-10-28T05:00:55.747Z,19.90
2022-10-28T05:03:22.317Z,26.13
2022-10-28T05:05:48.886Z,20.67
2022-10-28T05:08:15.665Z,27.13
2022-10-28T05:10:42.236Z,20.00
2022-10-28T05:13:08.764Z,21.02
2022-10-28T05:15:35.288Z,18.25
2022-10-28T05:18:01.972Z,23.80
2022-10-28T05:20:28.514Z,21.20
2022-10-28T05:22:56.894Z,21.23
2022-10-28T05:25:24.323Z,24.60
2022-10-28T05:27:51.056Z,25.73
2022-10-28T05:30:18.528Z,24.88
2022-10-28T05:32:47.435Z,18.05
2022-10-28T05:35:15.988Z,18.58
2022-10-28T05:37:44.314Z,19.27
2022-10-28T05:40:11.536Z,20.50
2022-10-28T05:42:44.405Z,25.17
2022-10-28T05:45:11.755Z,17.40
2022-10-28T05:47:48.450Z,27.05
2022-10-28T05:50:18.384Z,16.70
2022-10-28T05:52:52.469Z,19.23
2022-10-28T05:55:20.627Z,22.25
2022-10-28T05:57:47.972Z,22.63
2022-10-28T06:00:16.417Z,24.58
2022-10-28T06:02:43.267Z,24.00
2022-10-28T06:05:10.800Z,23.77
2022-10-28T06:07:38.234Z,18.77
2022-10-28T06:10:06.311Z,16.50
2022-10-28T06:12:31.657Z,20.40
2022-10-28T06:14:58.442Z,25.77
2022-10-28T06:17:25.371Z,16.88
2022-10-28T06:19:51.956Z,24.33
2022-10-28T06:22:18.691Z,12.73
2022-10-28T06:24:45.295Z,14.18
2022-10-28T06:27:11.782Z,17.88
2022-10-28T06:29:38.354Z,13.65
2022-10-28T06:32:08.191Z,19.40
2022-10-28T06:34:34.788Z,11.18
2022-10-28T06:37:01.378Z,18.42
2022-10-28T06:39:27.999Z,14.52
2022-10-28T06:41:54.506Z,14.55
2022-10-28T06:44:21.007Z,17.38
2022-10-28T06:46:48.984Z,15.50
2022-10-28T06:49:15.537Z,13.95
2022-10-28T06:51:42.095Z,26.15
2022-10-28T06:54:08.634Z,13.40
2022-10-28T06:56:35.189Z,17.63
2022-10-28T06:59:01.695Z,17.38
2022-10-28T07:01:28.240Z,18.60
2022-10-28T07:03:54.847Z,12.90
2022-10-28T07:06:21.469Z,15.85
2022-10-28T07:08:47.980Z,20.52
2022-10-28T07:11:14.554Z,14.65
2022-10-28T07:13:42.458Z,18.42
2022-10-28T07:16:10.793Z,17.08
2022-10-28T07:18:37.295Z,25.73
2022-10-28T07:21:03.972Z,24.70
2022-10-28T07:23:34.168Z,19.02
2022-10-28T07:26:01.131Z,19.65
2022-10-28T07:28:29.345Z,23.83
2022-10-28T07:31:04.294Z,22.92
2022-10-28T07:33:31.080Z,26.73
2022-10-28T07:35:57.610Z,23.27
2022-10-28T07:38:24.191Z,20.20
2022-10-28T07:40:50.712Z,21.73
2022-10-28T07:43:17.220Z,23.88
2022-10-28T07:45:43.851Z,21.42
2022-10-28T07:48:10.460Z,27.15
2022-10-28T07:50:36.966Z,19.08
2022-10-28T07:53:03.465Z,23.25
2022-10-28T07:55:30.037Z,21.20
2022-10-28T07:57:56.767Z,15.43
2022-10-28T08:00:23.566Z,20.90
2022-10-28T08:02:50.326Z,23.63
2022-10-28T08:05:16.865Z,18.35
2022-10-28T08:07:43.559Z,17.55
2022-10-28T08:10:10.475Z,15.82
2022-10-28T08:12:37.030Z,21.58
2022-10-28T08:15:04.586Z,15.50
2022-10-28T08:17:31.157Z,13.07
2022-10-28T08:19:57.890Z,16.80
2022-10-28T08:22:24.661Z,16.88
2022-10-28T08:24:51.240Z,15.27
2022-10-28T08:27:17.818Z,14.48
2022-10-28T08:29:44.310Z,14.55
2022-10-28T08:32:10.774Z,17.65
2022-10-28T08:34:39.485Z,16.63
2022-10-28T08:37:09.234Z,13.35
2022-10-28T08:39:35.877Z,15.40
2022-10-28T08:42:09.672Z,16.45
2022-10-28T08:44:44.817Z,16.88
2022-10-28T08:47:31.771Z,15.65
2022-10-28T08:50:04.544Z,13.07
2022-10-28T08:52:44.912Z,19.77
2022-10-28T08:55:17.134Z,15.32
2022-10-28T08:57:51.798Z,18.38
2022-10-28T09:00:28.175Z,15.82
2022-10-28T09:03:13.810Z,22.92
2022-10-28T09:05:42.458Z,17.70
2022-10-28T09:08:31.523Z,19.42
2022-10-28T09:11:11.779Z,20.45
2022-10-28T09:13:41.288Z,25.27
2022-10-28T09:16:39.652Z,14.52
2022-10-28T09:19:14.712Z,16.63
2022-10-28T09:21:47.374Z,15.57
2022-10-28T09:24:20.518Z,20.45
2022-10-28T09:26:46.937Z,17.55
2022-10-28T09:29:32.413Z,15.75
2022-10-28T09:32:22.107Z,18.45
2022-10-28T09:35:10.115Z,15.23
2022-10-28T09:37:47.575Z,25.13
2022-10-28T09:40:21.665Z,18.90
2022-10-28T09:43:08.552Z,24.27
2022-10-28T09:45:40.085Z,22.25
2022-10-28T09:48:22.335Z,22.77
2022-10-28T09:50:51.919Z,17.92
2022-10-28T09:53:40.039Z,18.90
2022-10-28T09:58:36.827Z,26.17
2022-10-28T10:01:04.897Z,24.40
2022-10-28T10:03:32.945Z,24.88
2022-10-28T10:06:25.033Z,18.67
2022-10-28T10:08:52.898Z,22.80
2022-10-28T10:13:54.133Z,21.95
2022-10-28T10:16:42.263Z,18.88
2022-10-28T10:19:11.031Z,21.08
2022-10-28T10:21:42.201Z,25.35
2022-10-28T10:24:25.650Z,28.75
2022-10-28T10:26:54.529Z,21.27
2022-10-28T10:29:22.194Z,25.25
2022-10-28T10:32:03.815Z,18.08
2022-10-28T10:34:31.021Z,22.38
2022-10-28T10:36:57.619Z,23.63
2022-10-28T10:39:31.501Z,18.25
2022-10-28T10:41:58.857Z,22.75
2022-10-28T10:44:32.558Z,22.67
2022-10-28T10:47:05.939Z,24.13
2022-10-28T10:49:35.061Z,18.83
2022-10-28T10:52:26.217Z,19.13
2022-10-28T10:55:03.679Z,21.70
2022-10-28T10:57:31.408Z,19.40
2022-10-28T10:59:58.246Z,22.30
2022-10-28T11:02:35.085Z,25.65
2022-10-28T11:05:10.276Z,21.33
2022-10-28T11:07:40.407Z,26.92
2022-10-28T11:10:19.127Z,24.17
2022-10-28T11:12:57.236Z,16.90
2022-10-28T11:15:31.668Z,22.88
2022-10-28T11:18:20.825Z,27.60
2022-10-28T11:20:49.975Z,27.70
2022-10-28T11:23:56.132Z,24.35
2022-10-28T11:26:24.575Z,21.92
2022-10-28T11:29:01.808Z,28.75
2022-10-28T11:31:50.370Z,20.97
2022-10-28T11:34:35.549Z,21.00
2022-10-28T11:37:20.058Z,23.85
2022-10-28T11:39:56.190Z,24.70
2022-10-28T11:42:40.785Z,24.02
2022-10-28T11:45:10.411Z,20.67
2022-10-28T11:47:48.774Z,24.50
2022-10-28T11:50:23.187Z,19.40
2022-10-28T11:53:10.993Z,24.05
2022-10-28T11:56:30.146Z,23.20
2022-10-28T11:58:59.723Z,20.20
2022-10-28T12:01:44.750Z,16.98
2022-10-28T12:04:17.600Z,17.83
2022-10-28T12:07:02.350Z,24.13
2022-10-28T12:09:34.863Z,23.67
2022-10-28T12:12:13.385Z,20.38
2022-10-28T12:15:13.349Z,18.08
2022-10-28T12:17:50.896Z,18.38
2022-10-28T12:20:26.277Z,15.35
2022-10-28T12:22:56.211Z,19.50
2022-10-28T12:25:27.837Z,20.63
2022-10-28T12:30:52.895Z,14.38
2022-10-28T12:33:34.567Z,18.55
2022-10-28T12:36:20.782Z,20.88
2022-10-28T12:39:02.945Z,16.98
2022-10-28T12:41:52.316Z,15.85
2022-10-28T12:44:25.171Z,19.35
2022-10-28T12:47:05.529Z,15.18
2022-10-28T12:49:47.207Z,16.45
2022-10-28T12:52:27.581Z,22.45
2022-10-28T12:55:18.548Z,16.77
2022-10-28T12:57:49.835Z,13.30
2022-10-28T13:00:22.949Z,17.65
2022-10-28T13:03:07.642Z,9.80
2022-10-28T13:05:43.314Z,19.55
2022-10-28T13:08:43.766Z,15.10
2022-10-28T13:11:19.120Z,16.05
2022-10-28T13:13:53.392Z,16.23
2022-10-28T13:16:57.602Z,18.38
2022-10-28T13:19:59.545Z,10.35
2022-10-28T13:23:08.227Z,11.32
2022-10-28T13:25:59.337Z,16.35
2022-10-28T13:28:34.148Z,13.65
2022-10-28T13:31:03.909Z,16.70
2022-10-28T13:33:33.450Z,11.52
2022-10-28T13:36:25.269Z,14.13
2022-10-28T13:38:55.757Z,11.13
2022-10-28T13:41:34.541Z,7.72
2022-10-28T13:44:11.126Z,16.45
2022-10-28T13:46:59.199Z,12.05
2022-10-28T13:52:11.934Z,9.50
2022-10-28T13:54:44.436Z,21.40
2022-10-28T13:57:39.848Z,9.40
2022-10-28T14:00:29.348Z,12.32
2022-10-28T14:03:02.344Z,10.63
2022-10-28T14:05:38.088Z,11.18
2022-10-28T14:08:20.175Z,10.93
2022-10-28T14:11:06.077Z,14.77
2022-10-28T14:13:37.855Z,13.07
2022-10-28T14:16:27.617Z,17.52
2022-10-28T14:18:56.067Z,18.85
2022-10-28T14:21:23.805Z,7.80
2022-10-28T14:24:13.252Z,12.95
2022-10-28T14:27:15.470Z,14.07
2022-10-28T14:29:50.815Z,17.80
2022-10-28T14:32:32.937Z,13.43
2022-10-28T14:35:05.854Z,13.13
2022-10-28T14:38:15.207Z,13.40
2022-10-28T14:41:03.205Z,8.32
2022-10-28T14:43:50.774Z,12.05
2022-10-28T14:46:17.411Z,14.57
2022-10-28T14:48:55.192Z,15.98
2022-10-28T15:07:19.249Z,9.05
2022-10-28T15:09:53.729Z,10.82
2022-10-28T15:12:22.618Z,12.93
2022-10-28T15:14:52.288Z,14.40
2022-10-28T15:17:27.360Z,5.97
2022-10-28T15:19:56.494Z,17.25
2022-10-28T15:22:32.116Z,8.07
2022-10-28T15:25:04.641Z,17.55
2022-10-28T15:27:33.582Z,13.13
2022-10-28T15:30:00.464Z,13.63
2022-10-28T15:32:32.734Z,11.57
2022-10-28T15:35:00.295Z,8.20
2022-10-28T15:37:30.278Z,8.13
2022-10-28T15:40:30.976Z,7.95
2022-10-28T15:43:06.287Z,10.65
2022-10-28T15:45:41.283Z,10.55
2022-10-28T15:48:19.450Z,11.82
2022-10-28T15:50:46.288Z,15.93
2022-10-28T15:53:31.978Z,10.20
2022-10-28T15:56:25.224Z,9.05
2022-10-28T15:59:24.000Z,12.98
2022-10-28T16:01:51.080Z,10.40
2022-10-28T16:04:23.640Z,10.60
2022-10-28T16:06:55.816Z,11.32
2022-10-28T16:09:32.155Z,15.52
2022-10-28T16:12:02.590Z,15.82
2022-10-28T16:14:39.365Z,7.97
2022-10-28T16:17:16.691Z,15.85
2022-10-28T16:19:50.040Z,14.27
2022-10-28T16:22:18.577Z,15.88
2022-10-28T16:27:21.831Z,12.30
2022-10-28T16:29:49.207Z,6.80
2022-10-28T16:32:18.179Z,13.20
2022-10-28T16:34:47.476Z,10.55
2022-10-28T16:37:33.522Z,14.38
2022-10-28T16:40:04.358Z,10.98
2022-10-28T16:42:31.324Z,11.55
2022-10-28T16:44:57.973Z,14.55
2022-10-28T16:47:27.091Z,13.05
2022-10-28T16:55:17.285Z,8.98
2022-10-28T16:57:43.913Z,10.35
2022-10-28T17:00:13.854Z,16.10
2022-10-28T17:02:40.838Z,11.73
2022-10-28T17:05:19.365Z,10.82
2022-10-28T17:07:46.004Z,11.52
2022-10-28T17:10:13.056Z,12.25
2022-10-28T17:12:39.912Z,11.10
2022-10-28T17:15:07.419Z,9.52
2022-10-28T17:17:33.958Z,12.57
2022-10-28T17:20:00.497Z,9.90
2022-10-28T17:22:27.634Z,11.77
2022-10-28T17:24:54.591Z,11.75
2022-10-28T17:27:21.200Z,18.80
2022-10-28T17:29:47.922Z,11.90
2022-10-28T17:32:15.025Z,12.95
2022-10-28T17:34:41.608Z,16.98
2022-10-28T17:37:08.623Z,12.00
2022-10-28T17:39:35.157Z,11.05
2022-10-28T17:42:01.968Z,13.65
2022-10-28T17:44:28.535Z,11.65
2022-10-28T17:46:55.154Z,11.25
2022-10-28T17:49:21.714Z,12.02
2022-10-28T17:51:48.288Z,12.68
2022-10-28T17:54:14.923Z,14.30
2022-10-28T17:56:42.270Z,9.68
2022-10-28T17:59:09.300Z,15.07
2022-10-28T18:01:36.042Z,14.77
2022-10-28T18:04:06.281Z,13.45
2022-10-28T18:06:33.027Z,12.82
2022-10-28T18:08:59.593Z,12.45
2022-10-28T18:11:27.462Z,12.75
2022-10-28T18:13:55.950Z,11.40
2022-10-28T18:16:25.300Z,15.38
2022-10-28T18:18:53.347Z,16.08
2022-10-28T18:21:24.564Z,11.80
2022-10-28T18:24:03.617Z,12.73
2022-10-28T18:26:32.246Z,15.93
2022-10-28T18:28:59.086Z,10.80
2022-10-28T18:31:25.951Z,12.55
2022-10-28T18:33:52.486Z,15.02
2022-10-28T18:36:23.668Z,10.48
2022-10-28T18:38:51.449Z,11.30
2022-10-28T18:41:21.117Z,12.15
2022-10-28T18:43:47.897Z,10.23
2022-10-28T18:46:14.812Z,11.93
2022-10-28T18:48:41.512Z,14.60
2022-10-28T18:51:11.204Z,15.73
2022-10-28T18:53:42.263Z,14.13
2022-10-28T18:56:16.120Z,11.38
2022-10-28T18:58:43.296Z,11.60
2022-10-28T19:01:12.855Z,12.55
2022-10-28T19:03:39.961Z,12.80
2022-10-28T19:06:09.269Z,14.95
2022-10-28T19:08:35.786Z,14.20
2022-10-28T19:11:03.598Z,13.45
2022-10-28T19:13:33.895Z,15.90
2022-10-28T19:16:00.593Z,10.43
2022-10-28T19:18:27.343Z,11.95
2022-10-28T19:20:56.820Z,20.50
2022-10-28T19:23:23.481Z,10.20
2022-10-28T19:25:56.932Z,11.40
2022-10-28T19:28:23.579Z,11.38
2022-10-28T19:30:50.399Z,12.13
2022-10-28T19:33:16.916Z,11.63
2022-10-28T19:35:43.445Z,14.27
2022-10-28T19:38:12.899Z,11.25
2022-10-28T19:40:39.445Z,9.77
2022-10-28T19:43:06.040Z,9.95
2022-10-28T19:45:32.730Z,13.00
2022-10-28T19:48:02.296Z,9.98
2022-10-28T19:50:28.882Z,10.30
2022-10-28T19:52:55.467Z,12.88
2022-10-28T19:55:22.086Z,15.35
2022-10-28T19:57:51.906Z,12.02
2022-10-28T20:00:19.709Z,13.40
2022-10-28T20:02:47.432Z,13.02
2022-10-28T20:05:14.041Z,10.75
2022-10-28T20:07:40.636Z,14.20
2022-10-28T20:10:07.806Z,16.15
2022-10-28T20:12:34.339Z,18.13
2022-10-28T20:15:00.868Z,13.27
2022-10-28T20:17:27.447Z,15.32
2022-10-28T20:19:54.014Z,17.92
2022-10-28T20:22:20.609Z,16.25
2022-10-28T20:24:47.227Z,12.80
2022-10-28T20:27:13.767Z,9.52
2022-10-28T20:29:40.314Z,17.92
2022-10-28T20:32:06.843Z,13.77
2022-10-28T20:34:33.425Z,13.90
2022-10-28T20:36:59.986Z,12.40
2022-10-28T20:39:26.553Z,12.60
2022-10-28T20:41:53.215Z,11.80
2022-10-28T20:44:19.830Z,11.27
2022-10-28T20:46:48.011Z,12.93
2022-10-28T20:49:15.351Z,11.48
2022-10-28T20:51:42.450Z,14.73
2022-10-28T20:54:09.388Z,14.30
2022-10-28T20:56:37.791Z,16.52
2022-10-28T20:59:05.360Z,14.00
2022-10-28T21:01:37.733Z,16.98
2022-10-28T21:04:07.996Z,11.32
2022-10-28T21:06:35.788Z,10.32
2022-10-28T21:09:02.396Z,15.02
2022-10-28T21:11:28.978Z,12.90
2022-10-28T21:13:58.018Z,11.90
2022-10-28T21:16:25.695Z,17.45
2022-10-28T21:18:52.679Z,14.02
2022-10-28T21:21:20.455Z,13.93
2022-10-28T21:23:47.002Z,22.90
2022-10-28T21:26:13.623Z,15.48
2022-10-28T21:28:43.316Z,11.55
2022-10-28T21:31:15.311Z,15.65
2022-10-28T21:33:42.933Z,12.13
2022-10-28T21:36:12.004Z,15.35
2022-10-28T21:38:38.659Z,16.13
2022-10-28T21:41:12.132Z,13.55
2022-10-28T21:43:40.611Z,13.80
2022-10-28T21:46:07.590Z,21.13
2022-10-28T21:48:35.896Z,11.82
2022-10-28T21:51:06.343Z,15.75
2022-10-28T21:53:37.168Z,10.52
2022-10-28T21:56:13.810Z,9.02
2022-10-28T21:58:43.035Z,11.55
2022-10-28T22:01:15.967Z,18.55
2022-10-28T22:03:42.758Z,14.30
2022-10-28T22:06:09.621Z,14.95
2022-10-28T22:08:36.182Z,14.57
2022-10-28T22:11:15.076Z,16.92
2022-10-28T22:13:41.918Z,16.52
2022-10-28T22:16:11.794Z,20.38
2022-10-28T22:18:38.907Z,14.27
2022-10-28T22:21:12.046Z,15.50
2022-10-28T22:23:38.927Z,20.15
2022-10-28T22:26:07.484Z,13.63
2022-10-28T22:28:34.769Z,10.50
2022-10-28T22:31:03.597Z,13.05
2022-10-28T22:35:58.384Z,11.48
2022-10-28T22:38:25.288Z,15.75
2022-10-28T22:41:05.312Z,14.82
2022-10-28T22:43:32.130Z,13.90
2022-10-28T22:45:59.838Z,23.90
2022-10-28T22:48:27.081Z,16.35
2022-10-28T22:50:53.876Z,13.25
2022-10-28T22:53:20.394Z,13.45
2022-10-28T22:55:47.490Z,13.15
2022-10-28T22:58:15.241Z,13.48
2022-10-28T23:00:41.783Z,13.52
2022-10-28T23:03:08.310Z,14.70
2022-10-28T23:05:34.817Z,14.77
2022-10-28T23:08:01.411Z,17.70
2022-10-28T23:10:28.828Z,15.00
2022-10-28T23:13:00.077Z,12.73
2022-10-28T23:15:27.851Z,12.38
2022-10-28T23:17:54.631Z,14.13
2022-10-28T23:20:23.118Z,14.18
2022-10-28T23:22:49.656Z,15.82
2022-10-28T23:25:17.117Z,11.88
2022-10-28T23:27:44.703Z,12.48
2022-10-28T23:30:12.837Z,12.48
2022-10-28T23:32:40.328Z,16.63
2022-10-28T23:35:07.281Z,14.90
2022-10-28T23:37:33.837Z,12.40
2022-10-28T23:40:00.474Z,14.80
2022-10-28T23:42:27.034Z,17.13
2022-10-28T23:44:53.574Z,14.68
2022-10-28T23:47:20.156Z,14.45
2022-10-28T23:49:46.701Z,11.82
2022-10-28T23:52:13.241Z,14.15
2022-10-28T23:54:39.783Z,17.67
2022-10-28T23:57:06.309Z,15.77
2022-10-28T23:59:32.860Z,17.10
